Stations météo

Publicité
Sutton bonington, Grande-Bretagne (99025): Température de l'air & dewpoint: 02.04.2020 02:00:00 - 08.04.2020 02:00:00 (BST)Sutton bonington, Grande-Bretagne (99025): Température de l'air -20cm & Température de l'air -100cm: 02.04.2020 02:00:00 - 08.04.2020 02:00:00 (BST)Sutton bonington, Grande-Bretagne (99025): Vitesse du vent & gusts: 02.04.2020 02:00:00 - 08.04.2020 02:00:00 (BST)Sutton bonington, Grande-Bretagne (99025): Direction du vent: 02.04.2020 02:00:00 - 08.04.2020 02:00:00 (BST)Sutton bonington, Grande-Bretagne (99025): Quantités de précipitations: 02.04.2020 02:00:00 - 08.04.2020 02:00:00 (BST)
Date & Time tt [°C] td [°C] tt -20cm [°C] tt -100cm [°C] ff [km/h] ff [knt] fx [km/h] fx [knt] dd rr [mm]
08.04.2020 02:00:00 11,1 4,2 - - 8 4 - - SE 0,0
08.04.2020 01:00:00 10,8 4,1 - - 5 3 - - SSE 0,0
08.04.2020 00:00:00 10,5 4,0 - - 5 3 - - SSE 0,0
07.04.2020 23:00:00 11,9 2,2 - - 8 4 - - SSE 0,0
07.04.2020 22:00:00 13,0 2,9 - - 5 3 - - S 0,0
07.04.2020 21:00:00 14,2 3,8 - - 11 6 - - SE 0,0
07.04.2020 20:00:00 16,2 4,3 - - 4 2 - - SSW 0,0
07.04.2020 19:00:00 16,9 4,7 - - 8 4 - - S 0,0
07.04.2020 18:00:00 17,4 4,5 - - 11 6 - - S 0,0
07.04.2020 17:00:00 17,9 5,3 - - 13 7 - - S 0,0
07.04.2020 16:00:00 17,4 4,3 - - 13 7 - - S 0,0
07.04.2020 15:00:00 16,6 4,0 - - 16 9 - - S 0,0
07.04.2020 14:00:00 16,4 3,6 - - 15 8 - - SSE 0,0
07.04.2020 13:00:00 15,8 3,7 - - 15 8 - - SSE 0,0
07.04.2020 12:00:00 14,8 3,6 - - 11 6 - - SSE 0,0
07.04.2020 11:00:00 12,5 3,8 - - 9 5 - - SE 0,0
07.04.2020 10:00:00 9,5 4,2 8,2 8,0 0 0 - - N 0,0
07.04.2020 09:00:00 6,1 2,7 - - 0 0 - - N 0,0
07.04.2020 08:00:00 2,6 1,9 - - 0 0 - - N 0,0
07.04.2020 07:00:00 1,4 -0,2 - - 2 1 - - SSE 0,0
07.04.2020 06:00:00 1,3 0,3 - - 2 1 - - SE 0,0
07.04.2020 05:00:00 2,0 0,3 - - 2 1 - - S 0,0
07.04.2020 04:00:00 2,3 -0,1 - - 5 3 - - SSW 0,0
07.04.2020 03:00:00 3,8 0,7 - - 4 2 - - S 0,0
07.04.2020 02:00:00 4,6 0,7 - - 8 4 - - SW 0,0
07.04.2020 01:00:00 6,3 0,8 - - 5 3 - - SW 0,0
07.04.2020 00:00:00 6,2 1,5 - - 5 3 - - SW 0,0
06.04.2020 23:00:00 7,8 1,7 - - 4 2 - - WSW 0,0
06.04.2020 22:00:00 9,2 1,3 - - 8 4 - - W 0,0
06.04.2020 21:00:00 10,4 1,3 - - 9 5 - - W 0,0
06.04.2020 20:00:00 11,7 0,4 - - 9 5 - - W 0,0
06.04.2020 19:00:00 13,7 0,5 - - 22 12 - - WNW 0,0
06.04.2020 18:00:00 14,8 4,8 - - 16 9 - - WSW 0,0
06.04.2020 17:00:00 14,0 4,5 - - 15 8 - - W 0,0
06.04.2020 16:00:00 14,6 3,7 - - 21 11 - - WSW 0,0
06.04.2020 15:00:00 13,9 4,8 - - 22 12 - - W 0,0
06.04.2020 14:00:00 15,1 4,3 - - 22 12 - - WSW 0,0
06.04.2020 13:00:00 15,0 4,5 - - 18 10 - - WSW 0,0
06.04.2020 12:00:00 14,0 5,3 - - 18 10 - - W 0,0
06.04.2020 11:00:00 12,8 5,5 - - 18 10 - - WSW 0,0
06.04.2020 10:00:00 12,5 6,6 8,2 7,7 18 10 - - WSW 0,0
06.04.2020 09:00:00 11,7 7,2 - - 15 8 - - SW 0,0
06.04.2020 08:00:00 11,5 7,6 - - 13 7 - - WSW 0,0
06.04.2020 07:00:00 11,5 6,7 - - 15 8 - - WSW 0,0
06.04.2020 06:00:00 12,8 10,9 - - 13 7 - - S 0,0
06.04.2020 05:00:00 13,7 9,5 - - 16 9 - - S 0,0
06.04.2020 04:00:00 13,8 8,2 - - 13 7 - - S 0,0
06.04.2020 03:00:00 14,3 7,0 - - 15 8 - - S 0,0
06.04.2020 02:00:00 14,5 6,3 - - 16 9 - - S 0,0
06.04.2020 01:00:00 14,8 5,5 - - 16 9 - - S 0,0
06.04.2020 00:00:00 15,3 4,5 - - 16 9 - - SSE 0,0
05.04.2020 23:00:00 15,2 3,8 - - 16 9 - - SSE 0,0
05.04.2020 22:00:00 14,9 3,0 - - 11 6 - - SE 0,0
05.04.2020 21:00:00 16,8 2,6 - - 22 12 - - SSE 0,0
05.04.2020 20:00:00 17,9 2,6 - - 24 13 - - SSE 0,0
05.04.2020 19:00:00 19,1 3,7 - - 21 11 - - SSE 0,0
05.04.2020 18:00:00 19,5 3,1 - - 21 11 - - SSE 0,0
05.04.2020 17:00:00 19,7 2,9 - - 24 13 - - SSE 0,0
05.04.2020 16:00:00 19,4 3,4 - - 21 11 - - SSE 0,0
05.04.2020 15:00:00 19,3 3,4 - - 24 13 - - SSE 0,0
05.04.2020 14:00:00 18,4 2,2 - - 22 12 - - SSE 0,0
05.04.2020 13:00:00 17,3 3,1 - - 28 15 48 26 SSE 0,0
05.04.2020 12:00:00 16,4 2,8 - - 29 16 46 25 SSE 0,0
05.04.2020 11:00:00 14,9 3,8 - - 26 14 - - SSE 0,0
05.04.2020 10:00:00 12,2 3,6 7,4 7,5 21 11 - - SSE 0,0
05.04.2020 09:00:00 10,3 3,5 - - 16 9 - - SSE 0,0
05.04.2020 08:00:00 7,9 3,3 - - 9 5 - - SE 0,0
05.04.2020 07:00:00 4,7 2,1 - - 4 2 - - ENE 0,0
05.04.2020 06:00:00 4,5 2,3 - - 5 3 - - E 0,0
05.04.2020 05:00:00 4,8 2,6 - - 8 4 - - E 0,0
05.04.2020 04:00:00 6,7 3,1 - - 11 6 - - ESE 0,0
05.04.2020 03:00:00 6,6 2,9 - - 11 6 - - SE 0,0
05.04.2020 02:00:00 7,5 2,7 - - 11 6 - - SE 0,0
05.04.2020 01:00:00 7,5 1,6 - - 11 6 - - SE 0,0
05.04.2020 00:00:00 7,9 1,1 - - 9 5 - - SE 0,0
04.04.2020 23:00:00 8,6 2,2 - - 8 4 - - SE 0,0
04.04.2020 22:00:00 9,6 2,6 - - 9 5 - - SE 0,0
04.04.2020 21:00:00 10,6 3,0 - - 8 4 - - S 0,0
04.04.2020 20:00:00 12,7 3,0 - - 8 4 - - S 0,0
04.04.2020 19:00:00 13,7 3,6 - - 11 6 - - S 0,0
04.04.2020 18:00:00 14,7 4,0 - - 16 9 - - S 0,0
04.04.2020 17:00:00 14,1 5,1 - - 15 8 - - S 0,0
04.04.2020 16:00:00 13,7 5,6 - - 15 8 - - S 0,0
04.04.2020 15:00:00 12,9 6,5 - - 13 7 - - SSW 0,0
04.04.2020 14:00:00 11,4 5,5 - - 13 7 - - SSW 0,0
04.04.2020 13:00:00 11,5 5,0 - - 16 9 - - SW 0,0
04.04.2020 12:00:00 12,2 5,3 - - 13 7 - - SSW 0,0
04.04.2020 11:00:00 11,4 5,4 - - 15 8 - - SSW 0,0
04.04.2020 10:00:00 10,5 5,4 7,2 7,4 13 7 - - S 0,0
04.04.2020 09:00:00 7,1 4,5 - - 8 4 - - SE 0,0
04.04.2020 08:00:00 5,3 3,6 - - 8 4 - - SSE 0,0
04.04.2020 07:00:00 2,2 1,2 - - 2 1 - - E 0,0
04.04.2020 06:00:00 2,8 1,5 - - 8 4 - - SSE 0,0
04.04.2020 05:00:00 4,1 2,2 - - 8 4 - - SSE 0,0
04.04.2020 04:00:00 4,6 2,1 - - 4 2 - - SSW 0,0
04.04.2020 03:00:00 5,0 1,9 - - 4 2 - - WSW 0,0
04.04.2020 02:00:00 6,5 1,8 - - 8 4 - - S 0,0
04.04.2020 01:00:00 6,9 1,9 - - 5 3 - - S 0,0
04.04.2020 00:00:00 7,0 1,9 - - 5 3 - - SSW 0,0
03.04.2020 23:00:00 7,2 2,0 - - 4 2 - - SW 0,0
03.04.2020 22:00:00 7,5 2,1 - - 5 3 - - SW 0,0
03.04.2020 21:00:00 9,1 2,1 - - 4 2 - - SW 0,0
03.04.2020 20:00:00 10,4 2,7 - - 5 3 - - W 0,0
03.04.2020 19:00:00 11,0 2,6 - - 13 7 - - W 0,0
03.04.2020 18:00:00 11,3 2,0 - - 11 6 - - W 0,0
03.04.2020 17:00:00 11,5 2,0 - - 11 6 - - WSW 0,0
03.04.2020 16:00:00 11,9 1,1 - - 13 7 - - W 0,0
03.04.2020 15:00:00 10,9 0,6 - - 18 10 - - W 0,0
03.04.2020 14:00:00 10,4 0,6 - - 13 7 - - W 0,0
03.04.2020 13:00:00 9,6 0,5 - - 13 7 - - W 0,0
03.04.2020 12:00:00 8,9 1,4 - - 15 8 - - W 0,0
03.04.2020 11:00:00 8,6 2,8 - - 13 7 - - W 0,0
03.04.2020 10:00:00 7,9 3,6 7,0 7,2 11 6 - - W 0,0
03.04.2020 09:00:00 6,6 3,1 - - 8 4 - - WSW 0,0
03.04.2020 08:00:00 5,9 2,7 - - 0 0 - - N 0,0
03.04.2020 07:00:00 5,5 2,2 - - 4 2 - - W 0,0
03.04.2020 06:00:00 5,7 2,3 - - 8 4 - - W 0,0
03.04.2020 05:00:00 5,1 2,4 - - 5 3 - - W 0,0
03.04.2020 04:00:00 4,5 2,4 - - 5 3 - - WSW 0,0
03.04.2020 03:00:00 4,9 1,9 - - 8 4 - - W 0,0
03.04.2020 02:00:00 4,6 1,1 - - 4 2 - - WNW 0,0
03.04.2020 01:00:00 5,5 1,4 - - 4 2 - - W 0,0
03.04.2020 00:00:00 6,1 1,2 - - 13 7 - - WNW 0,0
02.04.2020 23:00:00 6,7 0,9 - - 11 6 - - WNW 0,0
02.04.2020 22:00:00 7,5 2,1 - - 15 8 - - WNW 0,0
02.04.2020 21:00:00 7,9 3,0 - - 22 12 - - NW 0,0
02.04.2020 20:00:00 9,6 3,2 - - 26 14 - - NW 0,0
02.04.2020 19:00:00 10,7 1,8 - - 31 17 54 29 WNW 0,0
02.04.2020 18:00:00 11,7 1,3 - - 31 17 54 29 WNW 0,0
02.04.2020 17:00:00 12,7 4,0 - - 28 15 54 29 NW 0,0
02.04.2020 16:00:00 12,2 4,6 - - 24 13 46 25 WNW 0,0
02.04.2020 15:00:00 11,3 6,7 - - 24 13 46 25 WNW 0,0
02.04.2020 14:00:00 10,6 6,5 - - 16 9 - - W 0,0
02.04.2020 13:00:00 9,8 6,5 - - 22 12 - - W 0,0
02.04.2020 12:00:00 10,1 5,4 - - 16 9 - - W 0,0
02.04.2020 11:00:00 9,5 5,1 - - 18 10 - - W 0,0
02.04.2020 10:00:00 8,5 4,5 6,9 7,2 21 11 - - W 0,0
02.04.2020 09:00:00 8,1 5,0 - - 16 9 - - W 0,0
02.04.2020 08:00:00 7,2 5,0 - - 15 8 - - W 0,0
02.04.2020 07:00:00 7,1 5,0 - - 13 7 - - WSW 0,0
02.04.2020 06:00:00 7,2 4,9 - - 9 5 - - W 0,0
02.04.2020 05:00:00 6,7 4,4 - - 9 5 - - WSW 0,0
02.04.2020 04:00:00 6,9 4,1 - - 9 5 - - W 0,0
02.04.2020 03:00:00 6,5 3,8 - - 13 7 - - W 0,0
02.04.2020 02:00:00 6,7 4,0 - - 15 8 - - W 0,0

tt = Température de l'air
td = dewpoint
tt -20cm = Température de l'air -20cm
tt -100cm = Température de l'air -100cm
ff = Vitesse du vent
fx = gusts
dd = Direction du vent
rr = Quantités de précipitations

stations d'obs. à proximité